createdAt,value
2016-04-23T00:00:35.576Z,56.73
2016-04-23T00:01:35.579Z,56.63
2016-04-23T00:02:35.566Z,56.26
2016-04-23T00:03:35.537Z,56.73
2016-04-23T00:04:35.524Z,56.73
2016-04-23T00:05:35.511Z,56.16
2016-04-23T00:06:35.499Z,56.63
2016-04-23T00:07:35.470Z,56.54
2016-04-23T00:08:35.457Z,56.63
2016-04-23T00:09:35.459Z,57.11
2016-04-23T00:10:35.432Z,56.45
2016-04-23T00:11:35.418Z,56.54
2016-04-23T00:12:35.593Z,56.54
2016-04-23T00:13:35.376Z,56.54
2016-04-23T00:14:35.379Z,57.68
2016-04-23T00:15:35.351Z,56.92
2016-04-23T00:16:35.337Z,57.59
2016-04-23T00:17:35.356Z,57.87
2016-04-23T00:18:35.312Z,57.68
2016-04-23T00:19:35.299Z,57.02
2016-04-23T00:20:35.286Z,56.26
2016-04-23T00:21:35.258Z,57.59
2016-04-23T00:22:35.245Z,57.59
2016-04-23T00:23:35.231Z,57.5
2016-04-23T00:24:35.219Z,57.78
2016-04-23T00:25:35.222Z,57.97
2016-04-23T00:26:35.192Z,57.87
2016-04-23T00:27:35.195Z,57.78
2016-04-23T00:28:35.167Z,57.87
2016-04-23T00:29:35.138Z,58.54
2016-04-23T00:30:35.141Z,58.06
2016-04-23T00:31:35.113Z,57.78
2016-04-23T00:32:35.100Z,57.78
2016-04-23T00:33:35.102Z,58.63
2016-04-23T00:34:35.074Z,58.83
2016-04-23T00:35:35.061Z,58.92
2016-04-23T00:36:35.032Z,58.63
2016-04-23T00:37:35.019Z,58.44
2016-04-23T00:38:35.007Z,59.11
2016-04-23T00:39:34.993Z,59.01
2016-04-23T00:40:34.980Z,58.73
2016-04-23T00:41:34.968Z,58.63
2016-04-23T00:42:34.939Z,58.44
2016-04-23T00:43:34.926Z,58.54
2016-04-23T00:44:34.929Z,58.44
2016-04-23T00:45:34.916Z,58.25
2016-04-23T00:46:34.903Z,58.54
2016-04-23T00:47:34.874Z,58.83
2016-04-23T00:48:34.846Z,59.3
2016-04-23T00:49:34.848Z,58.44
2016-04-23T00:50:34.820Z,59.01
2016-04-23T00:51:34.806Z,58.54
2016-04-23T00:52:34.810Z,59.77
2016-04-23T00:53:34.781Z,59.3
2016-04-23T00:54:34.768Z,59.49
2016-04-23T00:55:34.755Z,58.54
2016-04-23T00:56:34.742Z,59.49
2016-04-23T00:57:34.730Z,59.77
2016-04-23T00:58:34.700Z,59.39
2016-04-23T00:59:34.688Z,59.87
2016-04-23T01:00:34.675Z,59.77
2016-04-23T01:01:34.662Z,59.01
2016-04-23T01:02:34.633Z,59.01
2016-04-23T01:03:34.620Z,60.35
2016-04-23T01:04:34.607Z,60.06
2016-04-23T01:05:34.611Z,59.11
2016-04-23T01:06:34.582Z,59.3
2016-04-23T01:07:34.568Z,59.2
2016-04-23T01:08:34.572Z,58.54
2016-04-23T01:09:34.543Z,58.54
2016-04-23T01:10:34.515Z,58.92
2016-04-23T01:11:34.501Z,59.49
2016-04-23T01:12:34.489Z,59.2
2016-04-23T01:13:34.476Z,59.01
2016-04-23T01:14:34.462Z,59.49
2016-04-23T01:15:34.434Z,59.96
2016-04-23T01:16:34.420Z,59.3
2016-04-23T01:17:33.674Z,59.11
2016-04-23T01:18:34.395Z,59.58
2016-04-23T01:19:34.398Z,59.3
2016-04-23T01:20:34.370Z,59.87
2016-04-23T01:21:34.357Z,59.39
2016-04-23T01:22:34.343Z,60.16
2016-04-23T01:23:34.330Z,59.77
2016-04-23T01:24:34.303Z,60.06
2016-04-23T01:25:34.289Z,59.68
2016-04-23T01:26:34.276Z,59.68
2016-04-23T01:27:34.263Z,59.11
2016-04-23T01:28:34.234Z,58.92
2016-04-23T01:29:34.222Z,59.11
2016-04-23T01:30:34.208Z,59.11
2016-04-23T01:31:34.211Z,59.49
2016-04-23T01:32:34.199Z,59.39
2016-04-23T01:33:34.186Z,59.77
2016-04-23T01:34:34.157Z,59.11
2016-04-23T01:35:34.144Z,59.49
2016-04-23T01:36:34.335Z,58.44
2016-04-23T01:37:34.102Z,59.01
2016-04-23T01:38:34.090Z,59.11
2016-04-23T01:39:34.077Z,59.39
2016-04-23T01:40:34.063Z,58.92
2016-04-23T01:41:34.066Z,59.11
2016-04-23T01:42:34.038Z,59.11
2016-04-23T01:43:34.009Z,60.06
2016-04-23T01:44:33.996Z,59.58
2016-04-23T01:45:33.984Z,59.87
2016-04-23T01:46:33.971Z,59.77
2016-04-23T01:47:33.989Z,59.11
2016-04-23T01:48:33.945Z,59.87
2016-04-23T01:49:33.932Z,61.48
2016-04-23T01:50:33.903Z,60.53
2016-04-23T01:51:33.890Z,60.91
2016-04-23T01:52:33.877Z,60.98
2016-04-23T01:53:33.865Z,61.48
2016-04-23T01:54:33.851Z,60.63
2016-04-23T01:55:33.838Z,60.16
2016-04-23T01:56:33.826Z,59.96
2016-04-23T01:57:33.797Z,60.35
2016-04-23T01:58:33.784Z,59.58
2016-04-23T01:59:33.771Z,60.13
2016-04-23T02:00:33.759Z,60.35
2016-04-23T02:01:33.730Z,59.84
2016-04-23T02:02:33.747Z,59.68
2016-04-23T02:03:33.719Z,59.49
2016-04-23T02:04:33.737Z,59.77
2016-04-23T02:05:33.678Z,59.96
2016-04-23T02:06:33.696Z,60.22
2016-04-23T02:07:33.652Z,59.93
2016-04-23T02:08:33.639Z,60.03
2016-04-23T02:09:33.627Z,60.31
2016-04-23T02:10:33.597Z,60.13
2016-04-23T02:11:33.599Z,60.03
2016-04-23T02:12:34.182Z,59.74
2016-04-23T02:13:33.559Z,59.84
2016-04-23T02:14:33.546Z,59.74
2016-04-23T02:15:33.517Z,60.88
2016-04-23T02:16:33.504Z,59.84
2016-04-23T02:17:33.491Z,60.6
2016-04-23T02:18:33.478Z,60.13
2016-04-23T02:19:33.465Z,60.22
2016-04-23T02:20:33.453Z,60.79
2016-04-23T02:21:33.440Z,59.84
2016-04-23T02:22:33.420Z,60.6
2016-04-23T02:23:33.392Z,60.03
2016-04-23T02:24:33.380Z,59.93
2016-04-23T02:25:33.366Z,60.03
2016-04-23T02:26:33.353Z,60.13
2016-04-23T02:27:33.340Z,60.79
2016-04-23T02:28:33.328Z,60.22
2016-04-23T02:29:33.299Z,59.93
2016-04-23T02:30:33.302Z,59.65
2016-04-23T02:31:33.274Z,59.46
2016-04-23T02:32:33.260Z,59.74
2016-04-23T02:33:33.247Z,60.13
2016-04-23T02:34:33.234Z,60.03
2016-04-23T02:35:33.221Z,60.03
2016-04-23T02:36:33.193Z,60.5
2016-04-23T02:37:33.180Z,60.5
2016-04-23T02:38:33.167Z,60.5
2016-04-23T02:39:33.154Z,60.88
2016-04-23T02:40:33.126Z,60.88
2016-04-23T02:41:33.112Z,60.6
2016-04-23T02:42:33.099Z,61.55
2016-04-23T02:43:33.087Z,61.55
2016-04-23T02:44:33.074Z,60.79
2016-04-23T02:45:33.061Z,59.93
2016-04-23T02:46:33.048Z,61.26
2016-04-23T02:47:33.020Z,61.45
2016-04-23T02:48:33.006Z,60.69
2016-04-23T02:49:32.993Z,60.5
2016-04-23T02:50:32.980Z,61.36
2016-04-23T02:51:32.953Z,61.45
2016-04-23T02:52:32.955Z,61.45
2016-04-23T02:53:32.925Z,60.6
2016-04-23T02:54:32.914Z,60.41
2016-04-23T02:55:32.900Z,60.6
2016-04-23T02:56:32.887Z,60.31
2016-04-23T02:57:32.874Z,60.98
2016-04-23T02:58:32.847Z,60.79
2016-04-23T02:59:32.849Z,61.26
2016-04-23T03:00:32.819Z,61.17
2016-04-23T03:01:32.807Z,62.02
2016-04-23T03:02:32.794Z,61.74
2016-04-23T03:03:32.766Z,61.93
2016-04-23T03:04:32.752Z,61.26
2016-04-23T03:05:32.755Z,62.4
2016-04-23T03:06:32.774Z,61.45
2016-04-23T03:07:32.713Z,61.36
2016-04-23T03:08:32.701Z,61.45
2016-04-23T03:09:32.688Z,61.45
2016-04-23T03:10:32.675Z,61.65
2016-04-23T03:11:32.646Z,61.55
2016-04-23T03:12:32.648Z,62.02
2016-04-23T03:13:32.621Z,62.31
2016-04-23T03:14:32.607Z,62.88
2016-04-23T03:15:32.578Z,62.21
2016-04-23T03:16:32.582Z,62.21
2016-04-23T03:17:32.568Z,61.65
2016-04-23T03:18:32.540Z,61.55
2016-04-23T03:19:32.528Z,62.02
2016-04-23T03:20:32.531Z,62.4
2016-04-23T03:21:32.486Z,62.4
2016-04-23T03:22:32.489Z,61.83
2016-04-23T03:23:32.475Z,62.31
2016-04-23T03:24:32.462Z,61.83
2016-04-23T03:25:32.433Z,62.59
2016-04-23T03:26:32.421Z,62.5
2016-04-23T03:27:32.409Z,62.5
2016-04-23T03:28:32.395Z,62.78
2016-04-23T03:29:32.367Z,62.69
2016-04-23T03:30:32.353Z,62.69
2016-04-23T03:31:32.325Z,62.59
2016-04-23T03:32:32.328Z,62.5
2016-04-23T03:33:32.299Z,62.69
2016-04-23T03:34:32.286Z,62.78
2016-04-23T03:35:32.274Z,63.07
2016-04-23T03:36:32.261Z,62.78
2016-04-23T03:37:32.247Z,62.69
2016-04-23T03:38:32.219Z,62.97
2016-04-23T03:39:32.207Z,62.78
2016-04-23T03:40:32.193Z,63.64
2016-04-23T03:41:32.164Z,63.35
2016-04-23T03:42:32.167Z,62.97
2016-04-23T03:43:32.139Z,62.97
2016-04-23T03:44:32.126Z,62.78
2016-04-23T03:45:32.113Z,63.73
2016-04-23T03:46:32.100Z,63.64
2016-04-23T03:47:32.087Z,63.92
2016-04-23T03:48:32.059Z,63.54
2016-04-23T03:49:32.061Z,63.64
2016-04-23T03:50:32.032Z,63.73
2016-04-23T03:51:32.020Z,63.54
2016-04-23T03:52:32.007Z,64.3
2016-04-23T03:53:31.994Z,64.49
2016-04-23T03:54:31.965Z,64.3
2016-04-23T03:55:31.956Z,65.25
2016-04-23T03:56:31.943Z,64.69
2016-04-23T03:57:31.930Z,64.37
2016-04-23T03:58:31.917Z,63.98
2016-04-23T03:59:31.905Z,64.27
2016-04-23T04:00:31.875Z,64.21
2016-04-23T04:01:31.863Z,64.97
2016-04-23T04:02:31.851Z,64.78
2016-04-23T04:03:31.837Z,64.3
2016-04-23T04:04:31.808Z,64.02
2016-04-23T04:05:31.795Z,64.21
2016-04-23T04:06:31.782Z,64.21
2016-04-23T04:07:31.785Z,64.11
2016-04-23T04:08:31.757Z,64.49
2016-04-23T04:09:31.728Z,64.65
2016-04-23T04:10:31.714Z,64.49
2016-04-23T04:11:31.703Z,64.49
2016-04-23T04:12:31.689Z,64.84
2016-04-23T04:13:31.676Z,64.65
2016-04-23T04:14:31.648Z,64.65
2016-04-23T04:15:31.635Z,64.56
2016-04-23T04:16:31.622Z,64.49
2016-04-23T04:17:31.609Z,64.56
2016-04-23T04:18:31.596Z,64.69
2016-04-23T04:19:31.583Z,64.84
2016-04-23T04:20:31.554Z,65.35
2016-04-23T04:21:31.541Z,66.3
2016-04-23T04:22:31.529Z,66.77
2016-04-23T04:23:31.516Z,66.36
2016-04-23T04:24:31.503Z,65.98
2016-04-23T04:25:31.474Z,66.01
2016-04-23T04:26:31.461Z,65.69
2016-04-23T04:27:31.448Z,66.67
2016-04-23T04:28:31.435Z,66.2
2016-04-23T04:29:31.641Z,66.17
2016-04-23T04:30:31.426Z,65.44
2016-04-23T04:31:31.382Z,65.6
2016-04-23T04:32:31.368Z,65.6
2016-04-23T04:33:31.355Z,65.54
2016-04-23T04:34:31.342Z,65.6
2016-04-23T04:35:31.314Z,66.08
2016-04-23T04:36:31.300Z,65.41
2016-04-23T04:37:31.287Z,65.79
2016-04-23T04:38:31.275Z,66.27
2016-04-23T04:39:31.262Z,66.55
2016-04-23T04:40:31.249Z,66.17
2016-04-23T04:41:31.064Z,65.98
2016-04-23T04:42:31.223Z,66.08
2016-04-23T04:43:31.194Z,65.69
2016-04-23T04:44:31.181Z,66.46
2016-04-23T04:45:31.153Z,66.36
2016-04-23T04:46:31.140Z,67.02
2016-04-23T04:47:31.128Z,66.83
2016-04-23T04:48:31.114Z,67.4
2016-04-23T04:49:31.102Z,67.02
2016-04-23T04:50:31.088Z,67.06
2016-04-23T04:51:31.075Z,67.12
2016-04-23T04:52:31.046Z,67.34
2016-04-23T04:53:31.033Z,68.29
2016-04-23T04:54:31.021Z,66.87
2016-04-23T04:55:31.008Z,66.27
2016-04-23T04:56:30.980Z,66.55
2016-04-23T04:57:30.966Z,67.15
2016-04-23T04:58:30.954Z,67.12
2016-04-23T04:59:30.940Z,66.87
2016-04-23T05:00:30.927Z,67.34
2016-04-23T05:01:30.915Z,66.77
2016-04-23T05:02:30.902Z,67.15
2016-04-23T05:03:30.874Z,67.25
2016-04-23T05:04:30.860Z,66.83
2016-04-23T05:05:30.848Z,66.27
2016-04-23T05:06:30.834Z,66.67
2016-04-23T05:07:30.807Z,66.67
2016-04-23T05:08:30.792Z,66.3
2016-04-23T05:09:30.780Z,66.49
2016-04-23T05:10:30.767Z,66.3
2016-04-23T05:11:30.754Z,66.49
2016-04-23T05:12:30.741Z,67.06
2016-04-23T05:13:30.712Z,66.96
2016-04-23T05:14:30.700Z,67.72
2016-04-23T05:15:30.687Z,66.58
2016-04-23T05:16:30.674Z,67.34
2016-04-23T05:17:30.677Z,67.06
2016-04-23T05:18:30.633Z,67.15
2016-04-23T05:19:30.620Z,66.96
2016-04-23T05:20:30.606Z,67.06
2016-04-23T05:21:30.594Z,66.77
2016-04-23T05:22:30.596Z,66.39
2016-04-23T05:23:30.568Z,65.92
2016-04-23T05:24:30.554Z,66.39
2016-04-23T05:25:30.557Z,67.63
2016-04-23T05:26:30.513Z,66.87
2016-04-23T05:27:30.500Z,66.87
2016-04-23T05:28:30.472Z,67.06
2016-04-23T05:29:30.474Z,67.25
2016-04-23T05:30:30.446Z,67.15
2016-04-23T05:31:30.464Z,67.25
2016-04-23T05:32:30.451Z,68.1
2016-04-23T05:33:30.407Z,67.63
2016-04-23T05:34:30.394Z,67.25
2016-04-23T05:35:30.381Z,67.34
2016-04-23T05:36:30.368Z,67.72
2016-04-23T05:37:30.340Z,67.82
2016-04-23T05:38:30.545Z,68.01
2016-04-23T05:39:30.314Z,66.87
2016-04-23T05:40:30.317Z,67.06
2016-04-23T05:41:30.288Z,66.67
2016-04-23T05:42:30.275Z,67.34
2016-04-23T05:43:30.262Z,67.82
2016-04-23T05:44:30.234Z,67.06
2016-04-23T05:45:30.220Z,66.87
2016-04-23T05:46:30.223Z,67.25
2016-04-23T05:47:30.194Z,67.44
2016-04-23T05:48:30.182Z,67.25
2016-04-23T05:49:30.169Z,68.1
2016-04-23T05:50:30.156Z,67.82
2016-04-23T05:51:30.128Z,67.25
2016-04-23T05:52:30.114Z,67.25
2016-04-23T05:53:30.102Z,67.06
2016-04-23T05:54:30.088Z,66.87
2016-04-23T05:55:30.075Z,66.58
2016-04-23T05:56:30.063Z,66.96
2016-04-23T05:57:30.049Z,67.25
2016-04-23T05:58:29.880Z,67.25
2016-04-23T05:59:30.008Z,67.06
2016-04-23T06:00:30.011Z,66.49
2016-04-23T06:01:29.982Z,66.77
2016-04-23T06:02:29.969Z,66.96
2016-04-23T06:03:29.971Z,67.15
2016-04-23T06:04:29.944Z,66.96
2016-04-23T06:05:29.931Z,67.25
2016-04-23T06:06:29.918Z,66.49
2016-04-23T06:07:29.905Z,65.92
2016-04-23T06:08:29.876Z,66.77
2016-04-23T06:09:29.863Z,66.3
2016-04-23T06:10:29.850Z,66.87
2016-04-23T06:11:29.837Z,66.39
2016-04-23T06:12:29.825Z,66.58
2016-04-23T06:13:30.014Z,65.92
2016-04-23T06:14:29.798Z,65.35
2016-04-23T06:15:29.786Z,66.2
2016-04-23T06:16:29.773Z,66.67
2016-04-23T06:17:29.744Z,66.01
2016-04-23T06:18:29.747Z,66.3
2016-04-23T06:19:29.733Z,65.63
2016-04-23T06:20:29.706Z,66.01
2016-04-23T06:21:29.693Z,65.35
2016-04-23T06:22:29.680Z,65.35
2016-04-23T06:23:29.667Z,65.73
2016-04-23T06:24:29.638Z,66.49
2016-04-23T06:25:29.641Z,66.49
2016-04-23T06:26:29.627Z,66.87
2016-04-23T06:27:29.599Z,66.2
2016-04-23T06:28:29.586Z,65.16
2016-04-23T06:29:29.574Z,65.44
2016-04-23T06:30:29.560Z,65.44
2016-04-23T06:31:29.547Z,66.11
2016-04-23T06:32:29.550Z,65.54
2016-04-23T06:33:29.521Z,65.44
2016-04-23T06:34:29.509Z,65.76
2016-04-23T06:35:29.495Z,65.73
2016-04-23T06:36:29.468Z,65.38
2016-04-23T06:37:29.455Z,65.09
2016-04-23T06:38:29.457Z,65
2016-04-23T06:39:29.429Z,64.14
2016-04-23T06:40:29.415Z,65
2016-04-23T06:41:29.403Z,64.14
2016-04-23T06:42:29.436Z,64.53
2016-04-23T06:43:29.392Z,63.76
2016-04-23T06:44:29.364Z,64.43
2016-04-23T06:45:29.351Z,64.34
2016-04-23T06:46:29.337Z,63.48
2016-04-23T06:47:29.325Z,62.72
2016-04-23T06:48:29.297Z,63.29
2016-04-23T06:49:29.299Z,63.13
2016-04-23T06:50:29.286Z,63.79
2016-04-23T06:51:29.257Z,62.56
2016-04-23T06:52:29.245Z,63.13
2016-04-23T06:53:29.232Z,62.46
2016-04-23T06:54:29.219Z,62.46
2016-04-23T06:55:29.222Z,63.04
2016-04-23T06:56:29.208Z,61.71
2016-04-23T06:57:29.180Z,61.8
2016-04-23T06:58:29.183Z,61.52
2016-04-23T06:59:29.169Z,61.8
2016-04-23T07:00:29.141Z,61.32
2016-04-23T07:01:29.144Z,61.32
2016-04-23T07:02:29.116Z,59.71
2016-04-23T07:03:29.102Z,59.52
2016-04-23T07:04:29.090Z,59.14
2016-04-23T07:05:29.076Z,60.18
2016-04-23T07:06:29.063Z,59.99
2016-04-23T07:07:29.050Z,59.8
2016-04-23T07:08:29.038Z,59.14
2016-04-23T07:09:29.025Z,58.37
2016-04-23T07:10:29.027Z,59.52
2016-04-23T07:11:28.999Z,59.33
2016-04-23T07:12:28.986Z,57.9
2016-04-23T07:13:28.973Z,58.18
2016-04-23T07:14:28.960Z,58.47
2016-04-23T07:15:28.947Z,58.18
2016-04-23T07:16:28.934Z,57.52
2016-04-23T07:17:28.906Z,58.57
2016-04-23T07:18:28.768Z,58.57
2016-04-23T07:19:28.895Z,58.47
2016-04-23T07:20:28.867Z,58.85
2016-04-23T07:21:28.869Z,58.76
2016-04-23T07:22:28.856Z,57.81
2016-04-23T07:23:28.844Z,57.62
2016-04-23T07:24:28.831Z,59.05
2016-04-23T07:25:28.817Z,59.05
2016-04-23T07:26:28.789Z,58.57
2016-04-23T07:27:28.791Z,58.09
2016-04-23T07:28:28.763Z,58.57
2016-04-23T07:29:28.766Z,58.47
2016-04-23T07:30:28.769Z,59.14
2016-04-23T07:31:28.740Z,59.14
2016-04-23T07:32:28.711Z,58.47
2016-04-23T07:33:28.699Z,58.18
2016-04-23T07:34:28.904Z,59.99
2016-04-23T07:35:28.688Z,59.52
2016-04-23T07:36:28.660Z,60.28
2016-04-23T07:37:28.647Z,60.28
2016-04-23T07:38:28.634Z,59.9
2016-04-23T07:39:28.621Z,59.14
2016-04-23T07:40:28.607Z,59.71
2016-04-23T07:41:28.627Z,59.14
2016-04-23T07:42:28.658Z,59.99
2016-04-23T07:43:28.690Z,60.18
2016-04-23T07:44:28.721Z,60.66
2016-04-23T07:45:28.767Z,59.71
2016-04-23T07:46:28.776Z,60.09
2016-04-23T07:47:28.764Z,59.61
2016-04-23T07:48:28.767Z,60.28
2016-04-23T07:49:28.771Z,60.38
2016-04-23T07:50:28.774Z,60.47
2016-04-23T07:51:28.770Z,60.28
2016-04-23T07:52:28.762Z,60.94
2016-04-23T07:53:28.755Z,59.8
2016-04-23T07:54:28.748Z,58.57
2016-04-23T07:55:28.740Z,59.52
2016-04-23T07:56:28.746Z,58.4
2016-04-23T07:57:28.720Z,59.17
2016-04-23T07:58:28.709Z,57.55
2016-04-23T07:59:28.698Z,56.41
2016-04-23T08:00:28.687Z,56.79
2016-04-23T08:01:28.674Z,56.7
2016-04-23T08:02:28.662Z,57.65
2016-04-23T08:03:28.651Z,56.7
2016-04-23T08:04:28.638Z,57.93
2016-04-23T08:05:28.627Z,58.12
2016-04-23T08:06:28.738Z,55.83
2016-04-23T08:07:28.602Z,55.65
2016-04-23T08:08:28.589Z,56.03
2016-04-23T08:09:28.575Z,56.31
2016-04-23T08:10:28.579Z,56.12
2016-04-23T08:11:28.613Z,56.7
2016-04-23T08:12:28.553Z,56.22
2016-04-23T08:13:28.728Z,56.79
2016-04-23T08:14:28.512Z,56.44
2016-04-23T08:15:28.514Z,55.49
2016-04-23T08:16:28.502Z,54.25
2016-04-23T08:17:28.488Z,53.87
2016-04-23T08:18:28.476Z,53.8
2016-04-23T08:19:28.463Z,52.53
2016-04-23T08:20:28.465Z,50.66
2016-04-23T08:21:28.452Z,50.27
2016-04-23T08:22:28.439Z,50.49
2016-04-23T08:23:28.411Z,50.27
2016-04-23T08:24:28.413Z,50.75
2016-04-23T08:25:28.402Z,49.04
2016-04-23T08:26:28.388Z,46.32
2016-04-23T08:27:28.375Z,45.13
2016-04-23T08:28:28.377Z,44.74
2016-04-23T08:29:28.354Z,42.96
2016-04-23T08:30:28.340Z,40.4
2016-04-23T08:31:28.344Z,36.52
2016-04-23T08:32:28.331Z,36.63
2016-04-23T08:33:28.334Z,35.61
2016-04-23T08:34:28.320Z,34.5
2016-04-23T08:35:28.307Z,31.35
2016-04-23T08:36:28.295Z,29.85
2016-04-23T08:37:28.297Z,30.2
2016-04-23T08:38:28.285Z,31.9
2016-04-23T08:39:28.287Z,34.53
2016-04-23T08:40:28.289Z,37.36
2016-04-23T08:41:28.278Z,38.2
2016-04-23T08:42:28.280Z,39.42
2016-04-23T08:43:28.266Z,39.61
2016-04-23T08:44:28.254Z,40.86
2016-04-23T08:45:28.241Z,41.14
2016-04-23T08:46:28.243Z,43.03
2016-04-23T08:47:28.230Z,44.82
2016-04-23T08:48:28.500Z,44.92
2016-04-23T08:49:28.220Z,45.01
2016-04-23T08:50:28.222Z,46.63
2016-04-23T08:51:28.211Z,46.23
2016-04-23T08:52:28.197Z,47.56
2016-04-23T08:53:28.215Z,47.85
2016-04-23T08:54:28.187Z,48.49
2016-04-23T08:55:28.174Z,49.9
2016-04-23T08:56:28.161Z,50.18
2016-04-23T08:57:28.164Z,50.75
2016-04-23T08:58:28.166Z,50.37
2016-04-23T08:59:28.154Z,49.8
2016-04-23T09:00:28.156Z,50.92
2016-04-23T09:01:28.127Z,51.1
2016-04-23T09:02:28.115Z,51.58
2016-04-23T09:03:28.117Z,51.1
2016-04-23T09:04:28.104Z,51.93
2016-04-23T09:05:28.092Z,51.27
2016-04-23T09:06:28.079Z,52.41
2016-04-23T09:07:28.065Z,52.03
2016-04-23T09:08:28.053Z,51.27
2016-04-23T09:09:28.055Z,51.06
2016-04-23T09:10:28.042Z,52.2
2016-04-23T09:11:28.029Z,52.48
2016-04-23T09:12:28.017Z,52.29
2016-04-23T09:13:28.003Z,53.34
2016-04-23T09:14:28.022Z,53.36
2016-04-23T09:15:27.978Z,52.96
2016-04-23T09:16:27.964Z,52.96
2016-04-23T09:17:27.952Z,54.32
2016-04-23T09:18:27.955Z,53.84
2016-04-23T09:19:27.926Z,54.13
2016-04-23T09:20:27.928Z,53.55
2016-04-23T09:21:27.916Z,53.08
2016-04-23T09:22:27.168Z,53.55
2016-04-23T09:23:27.890Z,54.22
2016-04-23T09:24:27.877Z,52.34
2016-04-23T09:25:27.880Z,52.72
2016-04-23T09:26:27.852Z,51.68
2016-04-23T09:27:27.916Z,51.01
2016-04-23T09:28:27.840Z,50.75
2016-04-23T09:29:27.891Z,49.9
2016-04-23T09:30:27.815Z,49.8
2016-04-23T09:31:27.802Z,50.56
2016-04-23T09:32:27.790Z,51.51
2016-04-23T09:33:27.885Z,50.75
2016-04-23T09:34:27.857Z,50.18
2016-04-23T09:35:27.751Z,51.1
2016-04-23T09:36:27.737Z,50.54
2016-04-23T09:37:27.724Z,50.66
2016-04-23T09:38:27.726Z,51.8
2016-04-23T09:39:27.698Z,51.49
2016-04-23T09:40:27.686Z,51.49
2016-04-23T09:41:27.595Z,52.06
2016-04-23T09:42:27.675Z,51.58
2016-04-23T09:43:28.178Z,52.53
2016-04-23T09:44:27.650Z,52.44
2016-04-23T09:45:27.636Z,52.63
2016-04-23T09:46:27.623Z,52.82
2016-04-23T09:47:27.626Z,53.55
2016-04-23T09:48:27.598Z,53.46
2016-04-23T09:49:27.586Z,53.58
2016-04-23T09:50:27.588Z,52.44
2016-04-23T09:51:27.591Z,53.27
2016-04-23T09:52:27.561Z,53.84
2016-04-23T09:53:27.549Z,54.89
2016-04-23T09:54:27.536Z,54.41
2016-04-23T09:55:27.522Z,54.98
2016-04-23T09:56:27.510Z,56.12
2016-04-23T09:57:27.497Z,56.1
2016-04-23T09:58:27.484Z,54.57
2016-04-23T09:59:27.471Z,54.38
2016-04-23T10:00:27.458Z,54.38
2016-04-23T10:01:27.446Z,54.29
2016-04-23T10:02:27.308Z,52.58
2016-04-23T10:03:27.419Z,52.67
2016-04-23T10:04:27.406Z,52.29
2016-04-23T10:05:27.878Z,52.29
2016-04-23T10:06:27.443Z,51.91
2016-04-23T10:07:27.384Z,52.2
2016-04-23T10:08:27.370Z,51.53
2016-04-23T10:09:27.357Z,52.2
2016-04-23T10:10:27.345Z,52.39
2016-04-23T10:11:27.472Z,54
2016-04-23T10:12:27.303Z,53.17
2016-04-23T10:13:27.493Z,54.22
2016-04-23T10:14:27.292Z,53.08
2016-04-23T10:15:27.405Z,52.41
2016-04-23T10:16:29.079Z,51.93
2016-04-23T10:17:27.097Z,52.8
2016-04-23T10:18:27.241Z,52.25
2016-04-23T10:19:27.728Z,51.3
2016-04-23T10:20:27.059Z,52.44
2016-04-23T10:21:27.202Z,50.25
2016-04-23T10:22:27.043Z,50.54
2016-04-23T10:23:27.180Z,50.09
2016-04-23T10:24:27.167Z,48.94
2016-04-23T10:25:27.153Z,49.99
2016-04-23T10:26:27.141Z,48.68
2016-04-23T10:27:27.127Z,46.13
2016-04-23T10:28:27.130Z,43.58
2016-04-23T10:29:27.102Z,41.79
2016-04-23T10:30:27.104Z,41.33
2016-04-23T10:31:27.091Z,41.55
2016-04-23T10:32:27.079Z,40.25
2016-04-23T10:33:27.128Z,37.02
2016-04-23T10:34:27.084Z,36.17
2016-04-23T10:35:27.087Z,35.04
2016-04-23T10:36:27.057Z,32.67
2016-04-23T10:37:27.060Z,34.63
2016-04-23T10:38:27.048Z,33.69
2016-04-23T10:39:27.050Z,33.61
2016-04-23T10:40:27.053Z,33.43
2016-04-23T10:41:27.040Z,32.68
2016-04-23T10:42:27.059Z,30.2
2016-04-23T10:43:27.045Z,29.74
2016-04-23T10:44:27.032Z,28.48
2016-04-23T10:45:27.035Z,28
2016-04-23T10:46:27.038Z,27.05
2016-04-23T10:47:27.040Z,27.64
2016-04-23T10:48:27.028Z,26.6
2016-04-23T10:49:26.890Z,27.16
2016-04-23T10:50:27.034Z,26.76
2016-04-23T10:51:27.020Z,27.89
2016-04-23T10:52:27.023Z,30.52
2016-04-23T10:53:27.025Z,31.74
2016-04-23T10:54:27.045Z,33.92
2016-04-23T10:55:27.031Z,34
2016-04-23T10:56:27.033Z,35.41
2016-04-23T10:57:27.224Z,36.07
2016-04-23T10:58:27.024Z,36.16
2016-04-23T10:59:27.027Z,37.57
2016-04-23T11:00:27.013Z,39.86
2016-04-23T11:01:27.016Z,39.86
2016-04-23T11:02:27.002Z,40.51
2016-04-23T11:03:27.005Z,40.8
2016-04-23T11:04:26.993Z,41.17
2016-04-23T11:05:27.199Z,41.84
2016-04-23T11:06:26.983Z,42.87
2016-04-23T11:07:26.985Z,43.25
2016-04-23T11:08:26.988Z,43.73
2016-04-23T11:09:26.974Z,44.56
2016-04-23T11:10:26.993Z,44.09
2016-04-23T11:11:26.965Z,44.37
2016-04-23T11:12:26.952Z,44.18
2016-04-23T11:13:26.955Z,44.56
2016-04-23T11:14:26.941Z,44.66
2016-04-23T11:15:26.928Z,45.32
2016-04-23T11:16:26.915Z,45.04
2016-04-23T11:17:26.918Z,46.09
2016-04-23T11:18:26.906Z,45.32
2016-04-23T11:19:26.768Z,44.27
2016-04-23T11:20:26.895Z,44.46
2016-04-23T11:21:26.882Z,43.13
2016-04-23T11:22:26.869Z,42.76
2016-04-23T11:23:26.856Z,43.06
2016-04-23T11:24:26.844Z,42.58
2016-04-23T11:25:26.846Z,42.49
2016-04-23T11:26:26.833Z,41.65
2016-04-23T11:27:26.820Z,38.62
2016-04-23T11:28:26.808Z,38.07
2016-04-23T11:29:26.810Z,39.71
2016-04-23T11:30:26.797Z,34.97
2016-04-23T11:31:26.800Z,33.56
2016-04-23T11:32:26.630Z,39.1
2016-04-23T11:33:26.789Z,35.29
2016-04-23T11:34:27.792Z,32.34
2016-04-23T11:35:27.108Z,30.91
2016-04-23T11:36:26.766Z,30.61
2016-04-23T11:37:26.769Z,29.06
2016-04-23T11:38:26.772Z,27.25
2016-04-23T11:39:26.759Z,27.79
2016-04-23T11:40:26.762Z,28.36
2016-04-23T11:41:26.748Z,29.78
2016-04-23T11:42:26.751Z,30.82
2016-04-23T11:43:26.754Z,31.87
2016-04-23T11:44:26.741Z,33.49
2016-04-23T11:45:26.744Z,33.85
2016-04-23T11:46:26.731Z,33.76
2016-04-23T11:47:26.733Z,34.61
2016-04-23T11:48:26.737Z,35
2016-04-23T11:49:26.567Z,36.32
2016-04-23T11:50:27.617Z,36.79
2016-04-23T11:51:26.698Z,37.17
2016-04-23T11:52:26.701Z,37.65
2016-04-23T11:53:26.703Z,38.32
2016-04-23T11:54:26.689Z,38.89
2016-04-23T11:55:26.677Z,39.17
2016-04-23T11:56:26.664Z,38.6
2016-04-23T11:57:26.667Z,40.12
2016-04-23T11:58:26.653Z,39.65
2016-04-23T11:59:26.656Z,39.36
2016-04-23T12:00:26.659Z,40.22
2016-04-23T12:01:26.631Z,39.46
2016-04-23T12:02:26.633Z,39.17
2016-04-23T12:03:26.652Z,39.75
2016-04-23T12:04:27.044Z,39.36
2016-04-23T12:05:27.704Z,38.22
2016-04-23T12:06:26.597Z,38.7
2016-04-23T12:07:26.585Z,39.17
2016-04-23T12:08:26.571Z,37
2016-04-23T12:09:26.574Z,37.1
2016-04-23T12:10:26.577Z,37.95
2016-04-23T12:11:26.548Z,37.86
2016-04-23T12:12:26.551Z,37.19
2016-04-23T12:13:26.740Z,37.95
2016-04-23T12:14:26.537Z,37
2016-04-23T12:15:26.509Z,38.05
2016-04-23T12:16:26.512Z,39.36
2016-04-23T12:17:26.499Z,38.71
2016-04-23T12:18:26.501Z,38.43
2016-04-23T12:19:26.473Z,37.95
2016-04-23T12:20:26.381Z,38.79
2016-04-23T12:21:26.463Z,38.22
2016-04-23T12:22:26.450Z,37.84
2016-04-23T12:23:26.453Z,38.03
2016-04-23T12:24:26.439Z,40.22
2016-04-23T12:25:26.426Z,38.51
2016-04-23T12:26:26.414Z,39.1
2016-04-23T12:27:26.417Z,38.26
2016-04-23T12:28:26.404Z,35.3
2016-04-23T12:29:26.406Z,36.66
2016-04-23T12:30:26.408Z,35.03
2016-04-23T12:31:26.380Z,36.77
2016-04-23T12:32:26.383Z,36.02
2016-04-23T12:33:26.370Z,33.38
2016-04-23T12:34:26.358Z,32.54
2016-04-23T12:35:26.360Z,30.73
2016-04-23T12:36:26.363Z,28.45
2016-04-23T12:37:26.350Z,27.49
2016-04-23T12:38:26.336Z,26.07
2016-04-23T12:39:26.339Z,24.84
2016-04-23T12:40:26.341Z,25.13
2016-04-23T12:41:26.329Z,23.3
2016-04-23T12:42:26.347Z,23.11
2016-04-23T12:43:26.335Z,23.78
2016-04-23T12:44:26.337Z,24.81
2016-04-23T12:45:26.340Z,25.26
2016-04-23T12:46:26.327Z,26.87
2016-04-23T12:47:26.330Z,28.01
2016-04-23T12:48:26.317Z,29.33
2016-04-23T12:49:26.320Z,29.7
2016-04-23T12:50:26.212Z,30.46
2016-04-23T12:51:26.309Z,32.07
2016-04-23T12:52:26.296Z,32.84
2016-04-23T12:53:26.299Z,33.97
2016-04-23T12:54:26.301Z,33.97
2016-04-23T12:55:26.132Z,35.39
2016-04-23T12:56:26.292Z,36.81